Time;durP1;ratioP1;P1;durP2;ratioP2;P2;SDS_P1;SDS_P2;PMS_P1;PMS_P2;Temp;Humidity;BMP_temperature;BMP_pressure;BME280_temperature;BME280_humidity;BME280_pressure;Samples;Min_cycle;Max_cycle;Signal;HPM_P1;HPM_P2
2022/07/28 00:02:03;;;;;;;;;1.50;1.50;;;;;-146.44;100.00;58906.56;5059274;27;45485;-58
2022/07/28 00:04:29;;;;;;;;;3.00;3.00;;;;;-146.44;100.00;58906.56;5058024;28;45498;-58
2022/07/28 00:06:54;;;;;;;;;2.75;2.75;;;;;-146.44;100.00;58906.56;5057573;28;45393;-58
2022/07/28 00:09:20;;;;;;;;;2.00;2.00;;;;;-146.44;100.00;58906.56;5074283;28;45425;-58
2022/07/28 00:11:45;;;;;;;;;1.00;1.00;;;;;-146.44;100.00;58906.56;5078237;27;45427;-58
2022/07/28 00:14:11;;;;;;;;;2.50;2.00;;;;;-146.44;100.00;58906.56;5078157;27;45469;-59
2022/07/28 00:16:36;;;;;;;;;3.50;3.50;;;;;-146.44;100.00;58906.56;5077640;28;45445;-58
2022/07/28 00:19:01;;;;;;;;;1.00;1.00;;;;;-146.44;100.00;58906.56;5076626;27;45525;-58
2022/07/28 00:21:27;;;;;;;;;2.00;2.00;;;;;-146.44;100.00;58906.56;5077922;27;45401;-58
2022/07/28 00:23:52;;;;;;;;;3.25;3.25;;;;;-146.44;100.00;58906.56;5076086;27;45594;-58
2022/07/28 00:26:18;;;;;;;;;1.25;1.25;;;;;-146.44;100.00;58906.56;5077781;27;45382;-58
2022/07/28 00:28:43;;;;;;;;;2.00;2.00;;;;;-146.44;100.00;58906.56;5064784;27;45530;-58
2022/07/28 00:31:08;;;;;;;;;1.00;1.00;;;;;-146.44;100.00;58906.56;5058497;28;45438;-58
2022/07/28 00:33:34;;;;;;;;;1.00;1.00;;;;;-146.44;100.00;58906.56;5057534;28;45641;-58
2022/07/28 00:35:59;;;;;;;;;2.50;2.00;;;;;-146.44;100.00;58906.56;5072449;28;45675;-58
2022/07/28 00:38:25;;;;;;;;;3.25;3.25;;;;;-146.44;100.00;58906.56;5073737;27;45442;-58
2022/07/28 00:43:34;;;;;;;;;1.00;1.00;;;;;-146.44;100.00;58906.56;5077525;28;45420;-58
2022/07/28 00:46:00;;;;;;;;;2.75;2.75;;;;;-146.44;100.00;58906.56;5070748;27;45664;-58
2022/07/28 00:48:25;;;;;;;;;2.00;2.00;;;;;-146.44;100.00;58906.56;5070553;27;45531;-59
2022/07/28 00:50:51;;;;;;;;;2.00;2.00;;;;;-146.44;100.00;58906.56;5059898;27;46033;-58
2022/07/28 00:53:16;;;;;;;;;3.00;1.50;;;;;-146.44;100.00;58906.56;5080121;27;45548;-58
2022/07/28 00:55:42;;;;;;;;;1.50;1.50;;;;;-146.44;100.00;58906.56;5061593;27;46233;-58
2022/07/28 00:58:08;;;;;;;;;1.75;1.75;;;;;-146.44;100.00;58906.56;5057077;28;45451;-58
2022/07/28 01:00:34;;;;;;;;;2.75;2.75;;;;;-146.44;100.00;58906.56;5056996;28;45362;-58
2022/07/28 01:02:59;;;;;;;;;2.00;1.00;;;;;-146.44;100.00;58906.56;5056942;28;45303;-58
2022/07/28 01:05:34;;;;;;;;;1.50;1.50;;;;;-146.44;100.00;58906.56;5057506;28;45385;-58
2022/07/28 01:08:05;;;;;;;;;2.00;2.00;;;;;-146.44;100.00;58906.56;5056924;28;45429;-58
2022/07/28 01:10:55;;;;;;;;;2.50;2.50;;;;;-146.44;100.00;58906.56;5063167;28;45470;-58
2022/07/28 01:13:45;;;;;;;;;2.00;2.00;;;;;-146.44;100.00;58906.56;5077283;28;45372;-58
2022/07/28 01:16:11;;;;;;;;;1.00;1.00;;;;;-146.44;100.00;58906.56;5077011;27;46342;-58
2022/07/28 01:18:53;;;;;;;;;1.25;1.25;;;;;-146.44;100.00;58906.56;5076769;27;45404;-58
2022/07/28 01:21:33;;;;;;;;;2.00;2.00;;;;;-146.44;100.00;58906.56;5075437;28;45491;-58
2022/07/28 01:24:06;;;;;;;;;2.00;2.00;;;;;-146.44;100.00;58906.56;5084485;27;45609;-58
2022/07/28 01:26:44;;;;;;;;;2.00;2.00;;;;;-146.44;100.00;58906.56;5097117;27;45863;-58
2022/07/28 01:29:30;;;;;;;;;2.00;2.00;;;;;-146.44;100.00;58906.56;5094922;27;45414;-58
2022/07/28 01:32:03;;;;;;;;;2.50;1.25;;;;;-146.44;100.00;58906.56;5056756;28;45497;-58
2022/07/28 01:34:33;;;;;;;;;4.00;1.00;;;;;-146.44;100.00;58906.56;5072019;28;45560;-58
2022/07/28 01:37:12;;;;;;;;;2.00;2.00;;;;;-146.44;100.00;58906.56;5076105;27;46114;-58
2022/07/28 01:39:41;;;;;;;;;2.00;2.00;;;;;-146.44;100.00;58906.56;5075826;27;45447;-58
2022/07/28 01:42:08;;;;;;;;;1.00;1.00;;;;;-146.44;100.00;58906.56;5058744;27;45462;-58
2022/07/28 01:44:40;;;;;;;;;1.00;1.00;;;;;-146.44;100.00;58906.56;5056213;28;45433;-59
2022/07/28 01:47:06;;;;;;;;;2.00;2.00;;;;;-146.44;100.00;58906.56;5059814;28;45761;-58
2022/07/28 01:49:33;;;;;;;;;1.75;1.75;;;;;-146.44;100.00;58906.56;5076076;28;45560;-58
2022/07/28 01:52:01;;;;;;;;;1.25;1.25;;;;;-146.44;100.00;58906.56;5062790;27;45391;-58
2022/07/28 01:54:29;;;;;;;;;2.00;1.50;;;;;-146.44;100.00;58906.56;5065690;28;45405;-58
2022/07/28 01:56:56;;;;;;;;;2.00;2.00;;;;;-146.44;100.00;58906.56;5056616;28;45450;-58
2022/07/28 01:59:23;;;;;;;;;1.50;1.50;;;;;-146.44;100.00;58906.56;5056210;28;45467;-58
2022/07/28 02:01:51;;;;;;;;;0.50;0.50;;;;;-146.44;100.00;58906.56;5056212;28;45426;-58
2022/07/28 02:04:19;;;;;;;;;2.00;2.00;;;;;-146.44;100.00;58906.56;5056172;28;45381;-58
2022/07/28 02:06:47;;;;;;;;;1.75;1.75;;;;;-146.44;100.00;58906.56;5067514;28;46010;-58
2022/07/28 02:09:13;;;;;;;;;1.75;1.75;;;;;-146.44;100.00;58906.56;5076289;27;45455;-58
2022/07/28 02:11:40;;;;;;;;;2.00;2.00;;;;;-146.44;100.00;58906.56;5076340;27;45491;-58
2022/07/28 02:14:36;;;;;;;;;3.00;2.00;;;;;-146.44;100.00;58906.56;5075419;27;45433;-58
2022/07/28 02:17:06;;;;;;;;;2.25;2.25;;;;;-146.44;100.00;58906.56;5070379;27;46466;-58
2022/07/28 02:19:34;;;;;;;;;1.00;1.00;;;;;-146.44;100.00;58906.56;5055845;28;45481;-58
2022/07/28 02:22:01;;;;;;;;;1.00;1.00;;;;;-146.44;100.00;58906.56;5056987;28;45406;-58
2022/07/28 02:24:28;;;;;;;;;1.00;1.00;;;;;-146.44;100.00;58906.56;5055994;28;45359;-58
2022/07/28 02:27:00;;;;;;;;;1.75;1.75;;;;;-146.44;100.00;58906.56;5055656;28;45424;-58
2022/07/28 02:29:27;;;;;;;;;1.25;1.25;;;;;-146.44;100.00;58906.56;5055763;28;45499;-58
2022/07/28 02:32:21;;;;;;;;;2.50;2.50;;;;;-146.44;100.00;58906.56;5064070;28;45586;-58
2022/07/28 02:34:49;;;;;;;;;3.00;3.00;;;;;-146.44;100.00;58906.56;5074871;28;45374;-58
2022/07/28 02:37:16;;;;;;;;;1.00;1.00;;;;;-146.44;100.00;58906.56;5074012;27;46138;-58
2022/07/28 02:39:50;;;;;;;;;1.50;1.00;;;;;-146.44;100.00;58906.56;5075929;28;45437;-58
2022/07/28 02:42:21;;;;;;;;;3.00;3.00;;;;;-146.44;100.00;58906.56;5075724;27;45384;-58
2022/07/28 02:44:56;;;;;;;;;1.00;1.00;;;;;-146.44;100.00;58906.56;5075577;27;45389;-58
2022/07/28 02:47:25;;;;;;;;;3.00;3.00;;;;;-146.44;100.00;58906.56;5072633;27;46268;-58
2022/07/28 02:49:52;;;;;;;;;2.00;2.00;;;;;-146.44;100.00;58906.56;5071820;27;45378;-58
2022/07/28 02:52:22;;;;;;;;;3.25;2.50;;;;;-146.44;100.00;58906.56;5074091;28;45471;-58
2022/07/28 02:54:49;;;;;;;;;2.25;2.25;;;;;-146.44;100.00;58906.56;5060517;27;45605;-58
2022/07/28 02:57:17;;;;;;;;;3.50;2.25;;;;;-146.44;100.00;58906.56;5055303;28;46198;-58
2022/07/28 02:59:44;;;;;;;;;3.00;3.00;;;;;-146.44;100.00;58906.56;5055939;27;45450;-58
2022/07/28 03:02:10;;;;;;;;;2.25;2.25;;;;;-146.44;100.00;58906.56;5068577;28;45446;-59
2022/07/28 03:04:57;;;;;;;;;3.75;3.75;;;;;-146.44;100.00;58906.56;5080677;27;45391;-58
2022/07/28 03:07:27;;;;;;;;;1.25;1.25;;;;;-146.44;100.00;58906.56;5068313;28;46064;-58
2022/07/28 03:09:52;;;;;;;;;2.00;2.00;;;;;-146.44;100.00;58906.56;5058927;28;45441;-58
2022/07/28 03:12:17;;;;;;;;;1.00;1.00;;;;;-146.44;100.00;58906.56;5057618;28;45412;-58
2022/07/28 03:14:43;;;;;;;;;3.00;3.00;;;;;-146.44;100.00;58906.56;5058761;28;45648;-58
2022/07/28 03:17:08;;;;;;;;;3.00;2.00;;;;;-146.44;100.00;58906.56;5058409;28;46224;-58
2022/07/28 03:19:34;;;;;;;;;1.00;1.00;;;;;-146.44;100.00;58906.56;5058809;28;45429;-58
2022/07/28 03:21:59;;;;;;;;;2.00;2.00;;;;;-146.44;100.00;58906.56;5059421;28;45736;-59
2022/07/28 03:24:29;;;;;;;;;3.75;3.00;;;;;-146.44;100.00;58906.56;5078153;28;45461;-58
2022/07/28 03:27:24;;;;;;;;;2.50;2.00;;;;;-146.44;100.00;58906.56;5078449;27;46060;-58
2022/07/28 03:29:56;;;;;;;;;2.50;2.50;;;;;-146.44;100.00;58906.56;5063062;27;45370;-60
2022/07/28 03:32:24;;;;;;;;;2.25;2.25;;;;;-146.44;100.00;58906.56;5059693;28;45549;-59
2022/07/28 03:34:51;;;;;;;;;2.00;2.00;;;;;-146.44;100.00;58906.56;5074411;28;45551;-59
2022/07/28 03:37:22;;;;;;;;;1.75;1.25;;;;;-146.44;100.00;58906.56;5078697;27;46085;-59
2022/07/28 03:39:51;;;;;;;;;2.00;2.00;;;;;-146.44;100.00;58906.56;5073988;27;45482;-59
2022/07/28 03:42:18;;;;;;;;;2.00;2.00;;;;;-146.44;100.00;58906.56;5074144;28;45523;-59
2022/07/28 03:44:47;;;;;;;;;2.00;2.00;;;;;-146.44;100.00;58906.56;5077341;28;45448;-59
2022/07/28 03:47:13;;;;;;;;;3.00;3.00;;;;;-146.44;100.00;58906.56;5078025;28;46043;-58
2022/07/28 03:49:38;;;;;;;;;3.25;3.25;;;;;-146.44;100.00;58906.56;5078177;28;45355;-59
2022/07/28 03:52:04;;;;;;;;;2.00;2.00;;;;;-146.44;100.00;58906.56;5078518;27;45439;-59
2022/07/28 03:54:29;;;;;;;;;3.00;3.00;;;;;-146.44;100.00;58906.56;5078230;27;45323;-59
2022/07/28 03:56:55;;;;;;;;;2.00;2.00;;;;;-146.44;100.00;58906.56;5059460;28;46033;-59
2022/07/28 03:59:20;;;;;;;;;3.75;3.75;;;;;-146.44;100.00;58906.56;5056017;28;45681;-58
2022/07/28 04:01:46;;;;;;;;;2.75;2.75;;;;;-146.44;100.00;58906.56;5060553;28;45697;-59
2022/07/28 04:04:11;;;;;;;;;6.67;6.67;;;;;-146.44;100.00;58906.56;5078348;27;45439;-58
2022/07/28 04:06:36;;;;;;;;;3.75;3.75;;;;;-146.44;100.00;58906.56;5078143;27;45406;-58
2022/07/28 04:09:02;;;;;;;;;2.50;2.00;;;;;-146.44;100.00;58906.56;5078169;27;45488;-58
2022/07/28 04:11:28;;;;;;;;;4.75;3.00;;;;;-146.44;100.00;58906.56;5075304;28;45404;-59
2022/07/28 04:13:55;;;;;;;;;3.00;3.00;;;;;-146.44;100.00;58906.56;5075961;28;45619;-59
2022/07/28 04:16:20;;;;;;;;;3.50;3.50;;;;;-146.44;100.00;58906.56;5077867;27;46187;-59
2022/07/28 04:18:46;;;;;;;;;2.00;2.00;;;;;-146.44;100.00;58906.56;5077950;27;45398;-58
2022/07/28 04:21:12;;;;;;;;;1.50;1.50;;;;;-146.44;100.00;58906.56;5078146;27;45355;-58
2022/07/28 04:23:37;;;;;;;;;4.00;2.25;;;;;-146.44;100.00;58906.56;5078295;27;45699;-58
2022/07/28 04:26:03;;;;;;;;;2.00;2.00;;;;;-146.44;100.00;58906.56;5075305;27;45770;-58
2022/07/28 04:28:28;;;;;;;;;3.00;3.00;;;;;-146.44;100.00;58906.56;5057426;28;45364;-58
2022/07/28 04:30:53;;;;;;;;;3.75;3.75;;;;;-146.44;100.00;58906.56;5059297;27;45570;-59
2022/07/28 04:33:19;;;;;;;;;5.67;5.67;;;;;-146.44;100.00;58906.56;5057582;28;45422;-59
2022/07/28 04:35:45;;;;;;;;;4.33;3.33;;;;;-146.44;100.00;58906.56;5062694;28;46076;-58
2022/07/28 04:38:13;;;;;;;;;4.00;4.00;;;;;-146.44;100.00;58906.56;5076878;27;45495;-59
2022/07/28 04:40:40;;;;;;;;;4.00;4.00;;;;;-146.44;100.00;58906.56;5061005;28;45465;-58
2022/07/28 04:43:06;;;;;;;;;3.00;3.00;;;;;-146.44;100.00;58906.56;5077693;27;45376;-58
2022/07/28 04:45:32;;;;;;;;;4.00;4.00;;;;;-146.44;100.00;58906.56;5076917;27;46073;-58
2022/07/28 04:47:57;;;;;;;;;4.33;4.33;;;;;-146.44;100.00;58906.56;5076111;28;45414;-58
2022/07/28 04:50:22;;;;;;;;;5.00;5.00;;;;;-146.44;100.00;58906.56;5077094;27;45409;-58
2022/07/28 04:52:48;;;;;;;;;5.00;4.33;;;;;-146.44;100.00;58906.56;5076114;28;45594;-58
2022/07/28 04:55:15;;;;;;;;;4.00;4.00;;;;;-146.44;100.00;58906.56;5076842;27;45429;-58
2022/07/28 04:57:40;;;;;;;;;4.00;4.00;;;;;-146.44;100.00;58906.56;5071758;28;45332;-58
2022/07/28 05:00:13;;;;;;;;;4.00;4.00;;;;;-146.44;100.00;58906.56;5062144;27;45423;-58
2022/07/28 05:02:43;;;;;;;;;6.00;5.00;;;;;-146.44;100.00;58906.56;5070528;28;45478;-58
2022/07/28 05:05:09;;;;;;;;;4.75;4.00;;;;;-146.44;100.00;58906.56;5075395;27;45561;-59
2022/07/28 05:07:36;;;;;;;;;5.00;3.75;;;;;-146.44;100.00;58906.56;5077152;27;45485;-58
2022/07/28 05:10:03;;;;;;;;;5.00;4.00;;;;;-146.44;100.00;58906.56;5077280;28;45401;-58
2022/07/28 05:12:28;;;;;;;;;3.33;3.33;;;;;-146.44;100.00;58906.56;5077409;27;45382;-58
2022/07/28 05:14:54;;;;;;;;;5.67;5.00;;;;;-146.44;100.00;58906.56;5073628;27;45800;-58
2022/07/28 05:17:19;;;;;;;;;5.25;5.25;;;;;-146.44;100.00;58906.56;5063375;28;45524;-59
2022/07/28 05:19:44;;;;;;;;;5.67;5.33;;;;;-146.44;100.00;58906.56;5074919;28;45438;-59
2022/07/28 05:22:10;;;;;;;;;9.33;6.33;;;;;-146.44;100.00;58906.56;5070344;28;45547;-59
2022/07/28 05:24:35;;;;;;;;;5.33;5.33;;;;;-146.44;100.00;58906.56;5076753;28;45412;-59
2022/07/28 05:27:00;;;;;;;;;4.25;4.25;;;;;-146.44;100.00;58906.56;5076144;28;45422;-58
2022/07/28 05:29:25;;;;;;;;;4.00;4.00;;;;;-146.44;100.00;58906.56;5076891;28;45438;-58
2022/07/28 05:31:51;;;;;;;;;4.33;4.33;;;;;-146.44;100.00;58906.56;5076898;28;45536;-58
2022/07/28 05:34:16;;;;;;;;;4.67;4.67;;;;;-146.44;100.00;58906.56;5063184;28;45402;-58
2022/07/28 05:36:42;;;;;;;;;4.67;4.67;;;;;-146.44;100.00;58906.56;5071721;28;45465;-60
2022/07/28 05:39:07;;;;;;;;;5.00;3.67;;;;;-146.44;100.00;58906.56;5056538;28;45452;-61
2022/07/28 05:41:32;;;;;;;;;3.00;3.00;;;;;-146.44;100.00;58906.56;5056416;28;45505;-61
2022/07/28 05:44:00;;;;;;;;;5.00;4.00;;;;;-146.44;100.00;58906.56;5056389;28;45483;-61
2022/07/28 05:46:25;;;;;;;;;4.00;4.00;;;;;-146.44;100.00;58906.56;5056386;28;45517;-60
2022/07/28 05:48:51;;;;;;;;;6.00;6.00;;;;;-146.44;100.00;58906.56;5060027;28;45465;-62
2022/07/28 05:51:17;;;;;;;;;5.67;4.67;;;;;-146.44;100.00;58906.56;5056330;28;45389;-66
2022/07/28 05:53:42;;;;;;;;;5.33;5.33;;;;;-146.44;100.00;58906.56;5057806;28;45512;-59
2022/07/28 05:56:07;;;;;;;;;6.67;6.67;;;;;-146.44;100.00;58906.56;5076629;27;45388;-54
2022/07/28 05:58:33;;;;;;;;;5.00;5.00;;;;;-146.44;100.00;58906.56;5071772;27;45732;-55
2022/07/28 06:01:00;;;;;;;;;4.00;4.00;;;;;-146.44;100.00;58906.56;5064749;28;45477;-55
2022/07/28 06:03:26;;;;;;;;;5.00;5.00;;;;;-146.44;100.00;58906.56;5071322;28;45507;-56
2022/07/28 06:05:55;;;;;;;;;4.00;4.00;;;;;-146.44;100.00;58906.56;5063190;27;45456;-56
2022/07/28 06:08:23;;;;;;;;;5.00;5.00;;;;;-146.44;100.00;58906.56;5091782;27;45467;-55
2022/07/28 06:11:00;;;;;;;;;5.00;4.00;;;;;-146.44;100.00;58906.56;5074027;28;45299;-54
2022/07/28 06:13:26;;;;;;;;;4.33;4.33;;;;;-146.44;100.00;58906.56;5055770;28;45539;-55
2022/07/28 06:15:51;;;;;;;;;4.00;4.00;;;;;-146.44;100.00;58906.56;5066487;28;45698;-56
2022/07/28 06:18:18;;;;;;;;;5.67;5.67;;;;;-146.44;100.00;58906.56;5071825;28;45504;-59
2022/07/28 06:20:44;;;;;;;;;6.00;4.00;;;;;-146.44;100.00;58906.56;5065429;27;45437;-59
2022/07/28 06:23:10;;;;;;;;;8.00;4.33;;;;;-146.44;100.00;58906.56;5055777;28;45465;-60
2022/07/28 06:25:35;;;;;;;;;6.33;5.00;;;;;-146.44;100.00;58906.56;5055555;28;45514;-60
2022/07/28 06:28:03;;;;;;;;;5.00;5.00;;;;;-146.44;100.00;58906.56;5055433;28;45477;-60
2022/07/28 06:30:29;;;;;;;;;7.00;5.67;;;;;-146.44;100.00;58906.56;5055302;28;45417;-59
2022/07/28 06:32:56;;;;;;;;;8.67;7.00;;;;;-146.44;100.00;58906.56;5070819;28;46060;-60
2022/07/28 06:35:21;;;;;;;;;5.33;5.33;;;;;-146.44;100.00;58906.56;5075319;28;45456;-59
2022/07/28 06:37:48;;;;;;;;;5.00;5.00;;;;;-146.44;100.00;58906.56;5057992;28;45464;-60
2022/07/28 06:40:15;;;;;;;;;4.67;4.67;;;;;-146.44;100.00;58906.56;5059118;28;45534;-60
2022/07/28 06:42:41;;;;;;;;;6.33;6.33;;;;;-146.44;100.00;58906.56;5058982;28;48377;-61
2022/07/28 06:45:08;;;;;;;;;5.00;5.00;;;;;-146.44;100.00;58906.56;5059916;28;45568;-60
2022/07/28 06:47:34;;;;;;;;;6.00;6.00;;;;;-146.44;100.00;58906.56;5071336;28;45307;-60
2022/07/28 06:50:00;;;;;;;;;5.33;5.33;;;;;-146.44;100.00;58906.56;5079120;27;45397;-60
2022/07/28 06:52:26;;;;;;;;;7.00;7.00;;;;;-146.44;100.00;58906.56;5078852;28;45954;-59
2022/07/28 06:54:52;;;;;;;;;4.00;4.00;;;;;-146.44;100.00;58906.56;5072055;28;45605;-61
2022/07/28 06:57:21;;;;;;;;;5.67;5.67;;;;;-146.44;100.00;58906.56;5079217;27;45449;-59
2022/07/28 06:59:48;;;;;;;;;5.00;5.00;;;;;-146.44;100.00;58906.56;5079414;28;45318;-60
2022/07/28 07:02:14;;;;;;;;;6.00;6.00;;;;;-146.44;100.00;58906.56;5078861;27;46121;-60
2022/07/28 07:04:40;;;;;;;;;6.00;6.00;;;;;-146.44;100.00;58906.56;5078752;28;45421;-60
2022/07/28 07:07:05;;;;;;;;;6.00;6.00;;;;;-146.44;100.00;58906.56;5078081;28;45463;-60
2022/07/28 07:09:31;;;;;;;;;6.33;5.67;;;;;-146.44;100.00;58906.56;5078410;27;45418;-60
2022/07/28 07:11:56;;;;;;;;;7.00;7.00;;;;;-146.44;100.00;58906.56;5078325;28;45551;-59
2022/07/28 07:14:22;;;;;;;;;8.67;8.00;;;;;-146.44;100.00;58906.56;5078265;27;45445;-59
2022/07/28 07:16:47;;;;;;;;;8.33;8.33;;;;;-146.44;100.00;58906.56;5078468;28;45602;-60
2022/07/28 07:19:13;;;;;;;;;5.00;5.00;;;;;-146.44;100.00;58906.56;5072710;27;45467;-61
2022/07/28 07:21:38;;;;;;;;;6.33;6.00;;;;;-146.44;100.00;58906.56;5058383;28;45430;-60
2022/07/28 07:24:03;;;;;;;;;7.00;7.00;;;;;-146.44;100.00;58906.56;5057741;28;45538;-61
2022/07/28 07:26:29;;;;;;;;;4.75;4.75;;;;;-146.44;100.00;58906.56;5057944;28;45509;-60
2022/07/28 07:28:54;;;;;;;;;7.00;6.67;;;;;-146.44;100.00;58906.56;5057750;28;45485;-61
2022/07/28 07:31:19;;;;;;;;;7.00;7.00;;;;;-146.44;100.00;58906.56;5056331;28;46170;-61
2022/07/28 07:33:45;;;;;;;;;7.00;7.00;;;;;-146.44;100.00;58906.56;5057561;28;45399;-61
2022/07/28 07:36:10;;;;;;;;;6.67;6.67;;;;;-146.44;100.00;58906.56;5057757;28;45622;-61
2022/07/28 07:38:37;;;;;;;;;7.00;7.00;;;;;-146.44;100.00;58906.56;5057770;28;45396;-61
2022/07/28 07:41:03;;;;;;;;;5.67;5.67;;;;;-146.44;100.00;58906.56;5057649;28;45425;-61
2022/07/28 07:43:28;;;;;;;;;7.00;7.00;;;;;-146.44;100.00;58906.56;5056170;28;45429;-61
2022/07/28 07:45:53;;;;;;;;;7.00;7.00;;;;;-146.44;100.00;58906.56;5058087;28;45730;-61
2022/07/28 07:48:19;;;;;;;;;8.33;7.33;;;;;-146.44;100.00;58906.56;5057004;28;45490;-60
2022/07/28 07:50:44;;;;;;;;;7.67;7.67;;;;;-146.44;100.00;58906.56;5057741;28;46142;-61
2022/07/28 07:53:10;;;;;;;;;6.33;6.00;;;;;-146.44;100.00;58906.56;5057645;28;45394;-60
2022/07/28 07:55:35;;;;;;;;;5.00;5.00;;;;;-146.44;100.00;58906.56;5057850;28;45352;-61
2022/07/28 07:58:01;;;;;;;;;6.75;6.75;;;;;-146.44;100.00;58906.56;5057737;28;45382;-61
2022/07/28 08:00:26;;;;;;;;;9.33;8.00;;;;;-146.44;100.00;58906.56;5057586;28;45698;-61
2022/07/28 08:02:51;;;;;;;;;19.33;17.67;;;;;-146.44;100.00;58906.56;5057533;28;45432;-61
2022/07/28 08:05:17;;;;;;;;;5.00;5.00;;;;;-146.44;100.00;58906.56;5057626;28;45378;-61
2022/07/28 08:07:42;;;;;;;;;7.00;7.00;;;;;-146.44;100.00;58906.56;5056069;28;45739;-61
2022/07/28 08:10:09;;;;;;;;;8.00;6.00;;;;;-146.44;100.00;58906.56;5057510;28;45455;-61
2022/07/28 08:12:34;;;;;;;;;9.00;8.33;;;;;-146.44;100.00;58906.56;5057344;28;45457;-61
2022/07/28 08:15:00;;;;;;;;;7.00;6.25;;;;;-146.44;100.00;58906.56;5057546;28;45453;-61
2022/07/28 08:17:26;;;;;;;;;5.33;5.33;;;;;-146.44;100.00;58906.56;5057176;28;45441;-61
2022/07/28 08:19:51;;;;;;;;;7.67;6.00;;;;;-146.44;100.00;58906.56;5057151;28;45557;-60
2022/07/28 08:22:17;;;;;;;;;7.00;7.00;;;;;-146.44;100.00;58906.56;5057171;28;45459;-61
2022/07/28 08:24:42;;;;;;;;;7.00;6.33;;;;;-146.44;100.00;58906.56;5057031;28;45876;-61
2022/07/28 08:27:08;;;;;;;;;6.50;6.50;;;;;-146.44;100.00;58906.56;5057085;28;45462;-61
2022/07/28 08:29:34;;;;;;;;;5.25;5.25;;;;;-146.44;100.00;58906.56;5057074;28;46235;-60
2022/07/28 08:32:02;;;;;;;;;8.00;8.00;;;;;-146.44;100.00;58906.56;5056807;28;45475;-61
2022/07/28 08:34:28;;;;;;;;;6.33;6.33;;;;;-146.44;100.00;58906.56;5057249;28;45441;-61
2022/07/28 08:36:54;;;;;;;;;6.67;6.33;;;;;-146.44;100.00;58906.56;5055733;28;45579;-61
2022/07/28 08:39:19;;;;;;;;;6.67;6.67;;;;;-146.44;100.00;58906.56;5056878;28;45392;-61
2022/07/28 08:41:52;;;;;;;;;7.00;7.00;;;;;-146.44;100.00;58906.56;5056953;28;45471;-61
2022/07/28 08:44:26;;;;;;;;;8.00;6.67;;;;;-146.44;100.00;58906.56;5057015;28;45442;-61
2022/07/28 08:46:52;;;;;;;;;7.00;7.00;;;;;-146.44;100.00;58906.56;5057098;28;45438;-61
2022/07/28 08:49:17;;;;;;;;;7.33;7.33;;;;;-146.44;100.00;58906.56;5056569;28;45966;-61
2022/07/28 08:51:46;;;;;;;;;7.00;7.00;;;;;-146.44;100.00;58906.56;5056768;28;45461;-62
2022/07/28 08:54:15;;;;;;;;;8.33;7.33;;;;;-146.44;100.00;58906.56;5056841;28;45384;-62
2022/07/28 08:56:44;;;;;;;;;6.00;6.00;;;;;-146.44;100.00;58906.56;5056709;28;45446;-61
2022/07/28 08:59:09;;;;;;;;;9.50;9.00;;;;;-146.44;100.00;58906.56;5056529;28;45601;-62
2022/07/28 09:01:36;;;;;;;;;6.75;6.75;;;;;-146.44;100.00;58906.56;5056568;28;45459;-62
2022/07/28 09:04:02;;;;;;;;;7.00;7.00;;;;;-146.44;100.00;58906.56;5056610;28;45492;-62
2022/07/28 09:06:28;;;;;;;;;6.25;6.25;;;;;-146.44;100.00;58906.56;5056562;28;45375;-61
2022/07/28 09:08:53;;;;;;;;;6.00;6.00;;;;;-146.44;100.00;58906.56;5056384;28;46456;-61
2022/07/28 09:11:18;;;;;;;;;6.00;5.75;;;;;-146.44;100.00;58906.56;5056339;28;45510;-62
2022/07/28 09:13:44;;;;;;;;;15.00;14.33;;;;;-146.44;100.00;58906.56;5055030;28;45362;-61
2022/07/28 09:16:12;;;;;;;;;7.67;7.67;;;;;-146.44;100.00;58906.56;5056271;28;45625;-61
2022/07/28 09:18:38;;;;;;;;;7.50;7.50;;;;;-146.44;100.00;58906.56;5056033;28;45494;-62
2022/07/28 09:21:03;;;;;;;;;7.75;7.00;;;;;-146.44;100.00;58906.56;5056351;28;45490;-61
2022/07/28 09:23:46;;;;;;;;;15.67;14.67;;;;;-146.44;100.00;58906.56;5056344;28;45469;-62
2022/07/28 09:26:12;;;;;;;;;8.75;8.50;;;;;-146.44;100.00;58906.56;5056343;28;45551;-62
2022/07/28 09:29:00;;;;;;;;;6.00;6.00;;;;;-146.44;100.00;58906.56;5071506;28;46263;-61
2022/07/28 09:31:27;;;;;;;;;7.00;5.25;;;;;-146.44;100.00;58906.56;5056154;28;45470;-61
2022/07/28 09:33:55;;;;;;;;;6.00;6.00;;;;;-146.44;100.00;58906.56;5056177;28;45441;-62
2022/07/28 09:36:21;;;;;;;;;9.00;7.00;;;;;-146.44;100.00;58906.56;5056304;28;45476;-62
2022/07/28 09:38:47;;;;;;;;;6.50;6.00;;;;;-146.44;100.00;58906.56;5070971;28;45754;-61
2022/07/28 09:41:13;;;;;;;;;7.50;6.25;;;;;-146.44;100.00;58906.56;5056009;28;45441;-61
2022/07/28 09:43:42;;;;;;;;;6.25;6.25;;;;;-146.44;100.00;58906.56;5056112;28;45419;-62
2022/07/28 09:46:09;;;;;;;;;6.75;6.75;;;;;-146.44;100.00;58906.56;5056030;28;45369;-61
2022/07/28 09:48:49;;;;;;;;;4.50;4.50;;;;;-146.44;100.00;58906.56;5055786;28;46172;-61
2022/07/28 09:51:17;;;;;;;;;5.50;4.00;;;;;-146.44;100.00;58906.56;5055740;28;45565;-62
2022/07/28 09:53:43;;;;;;;;;4.75;4.75;;;;;-146.44;100.00;58906.56;5056020;28;45431;-62
2022/07/28 09:56:10;;;;;;;;;5.00;5.00;;;;;-146.44;100.00;58906.56;5055947;28;45267;-62
2022/07/28 09:58:37;;;;;;;;;6.00;4.25;;;;;-146.44;100.00;58906.56;5055473;28;47001;-61
2022/07/28 10:01:14;;;;;;;;;2.75;2.50;;;;;-146.44;100.00;58906.56;5055216;28;45457;-61
2022/07/28 10:03:41;;;;;;;;;4.75;4.75;;;;;-146.44;100.00;58906.56;5055646;28;45469;-61
2022/07/28 10:06:13;;;;;;;;;4.00;3.00;;;;;-146.44;100.00;58906.56;5060604;28;45542;-61
2022/07/28 10:08:40;;;;;;;;;4.50;4.00;;;;;-146.44;100.00;58906.56;5075863;27;45440;-61
2022/07/28 10:11:06;;;;;;;;;7.00;7.00;;;;;-146.44;100.00;58906.56;5058378;27;45402;-60
2022/07/28 10:13:32;;;;;;;;;4.75;4.75;;;;;-146.44;100.00;58906.56;5055470;27;45449;-60
2022/07/28 10:16:11;;;;;;;;;5.00;5.00;;;;;-146.44;100.00;58906.56;5055078;28;45480;-60
2022/07/28 10:18:38;;;;;;;;;3.50;3.50;;;;;-146.44;100.00;58906.56;5055187;28;45405;-60
2022/07/28 10:21:08;;;;;;;;;3.75;3.50;;;;;-146.44;100.00;58906.56;5055176;28;45390;-60
2022/07/28 10:23:37;;;;;;;;;3.00;3.00;;;;;-146.44;100.00;58906.56;5055535;28;45445;-60
2022/07/28 10:26:08;;;;;;;;;3.50;3.50;;;;;-146.44;100.00;58906.56;5055555;28;45566;-60
2022/07/28 10:28:36;;;;;;;;;2.00;2.00;;;;;-146.44;100.00;58906.56;5055138;28;46077;-61
2022/07/28 10:31:04;;;;;;;;;33.00;32.00;;;;;-146.44;100.00;58906.56;5070728;28;45723;-60
2022/07/28 10:33:31;;;;;;;;;11.67;10.33;;;;;-146.44;100.00;58906.56;5067216;27;45529;-61
2022/07/28 10:35:58;;;;;;;;;3.00;2.75;;;;;-146.44;100.00;58906.56;5067581;27;45902;-60
2022/07/28 10:38:28;;;;;;;;;5.75;5.75;;;;;-146.44;100.00;58906.56;5061190;27;46003;-60
2022/07/28 10:40:57;;;;;;;;;4.25;4.25;;;;;-146.44;100.00;58906.56;5068270;28;45547;-60
2022/07/28 10:43:22;;;;;;;;;6.25;5.25;;;;;-146.44;100.00;58906.56;5073245;27;45507;-60
2022/07/28 10:45:48;;;;;;;;;4.00;4.00;;;;;-146.44;100.00;58906.56;5055152;28;45537;-60
2022/07/28 10:48:15;;;;;;;;;4.00;4.00;;;;;-146.44;100.00;58906.56;5057828;27;45483;-61
2022/07/28 10:50:44;;;;;;;;;4.00;4.00;;;;;-146.44;100.00;58906.56;5095653;27;45385;-60
2022/07/28 10:53:12;;;;;;;;;4.00;4.00;;;;;-146.44;100.00;58906.56;5096019;27;45367;-60
2022/07/28 10:55:59;;;;;;;;;4.00;4.00;;;;;-146.44;100.00;58906.56;5060504;27;45556;-59
2022/07/28 10:58:35;;;;;;;;;5.00;5.00;;;;;-146.44;100.00;58906.56;5075222;28;45563;-61
2022/07/28 11:01:00;;;;;;;;;4.00;4.00;;;;;-146.44;100.00;58906.56;5062463;27;45437;-61
2022/07/28 11:03:45;;;;;;;;;4.00;4.00;;;;;-146.44;100.00;58906.56;5067976;27;45626;-60
2022/07/28 11:06:38;;;;;;;;;6.25;5.50;;;;;-146.44;100.00;58906.56;5070556;28;45427;-59
2022/07/28 11:09:16;;;;;;;;;3.50;3.50;;;;;-146.44;100.00;58906.56;5056759;27;46531;-60
2022/07/28 11:11:41;;;;;;;;;4.50;4.50;;;;;-146.44;100.00;58906.56;5059249;28;45605;-59
2022/07/28 11:14:22;;;;;;;;;4.25;3.25;;;;;-146.44;100.00;58906.56;5055132;28;45463;-60
2022/07/28 11:16:48;;;;;;;;;4.00;4.00;;;;;-146.44;100.00;58906.56;5054791;28;45370;-61